Time;durP1;ratioP1;P1;durP2;ratioP2;P2;SDS_P1;SDS_P2;PMS_P1;PMS_P2;Temp;Humidity;BMP_temperature;BMP_pressure;BME280_temperature;BME280_humidity;BME280_pressure;Samples;Min_cycle;Max_cycle;Signal;HPM_P1;HPM_P2
2021/01/15 00:02:02;;;;;;;28.30;12.23;;;;;;;-5.79;77.02;98415.95;124455;1143;22673;-66
2021/01/15 00:04:31;;;;;;;19.17;9.90;;;;;;;-5.84;77.19;98423.63;124593;1143;22695;-67
2021/01/15 00:07:02;;;;;;;17.47;9.30;;;;;;;-5.92;78.40;98426.40;124468;1142;22861;-67
2021/01/15 00:09:29;;;;;;;21.05;9.20;;;;;;;-5.94;78.24;98431.05;124614;1143;24043;-67
2021/01/15 00:11:56;;;;;;;16.20;8.07;;;;;;;-5.97;76.89;98424.27;124464;1142;22760;-66
2021/01/15 00:14:24;;;;;;;20.90;10.47;;;;;;;-5.96;78.01;98425.09;124597;1143;22734;-67
2021/01/15 00:16:53;;;;;;;30.27;13.93;;;;;;;-5.93;77.10;98425.57;124623;1142;22641;-67
2021/01/15 00:19:21;;;;;;;26.53;12.73;;;;;;;-5.90;76.75;98421.70;124606;1142;22662;-67
2021/01/15 00:21:48;;;;;;;21.63;10.13;;;;;;;-5.86;77.92;98430.93;124653;1143;24032;-68
2021/01/15 00:24:19;;;;;;;26.20;10.90;;;;;;;-5.83;78.13;98419.97;122259;1143;22895;-66
2021/01/15 00:26:47;;;;;;;21.80;10.43;;;;;;;-5.80;78.18;98415.13;121249;1144;22900;-67
2021/01/15 00:29:15;;;;;;;21.67;10.37;;;;;;;-5.75;77.04;98419.88;121143;1143;27209;-66
2021/01/15 00:31:44;;;;;;;22.73;11.43;;;;;;;-5.76;76.58;98420.88;121201;1142;22968;-66
2021/01/15 00:34:13;;;;;;;21.10;10.17;;;;;;;-5.75;77.23;98417.22;124451;1143;22772;-66
2021/01/15 00:36:41;;;;;;;19.53;10.77;;;;;;;-5.76;76.39;98416.39;124532;1142;22684;-67
2021/01/15 00:39:09;;;;;;;23.87;11.00;;;;;;;-5.75;76.13;98426.00;124473;1143;22726;-67
2021/01/15 00:41:37;;;;;;;20.93;9.73;;;;;;;-5.80;76.20;98435.52;124573;1143;22799;-67
2021/01/15 00:44:05;;;;;;;21.23;10.53;;;;;;;-5.83;76.34;98434.05;124451;1143;22701;-67
2021/01/15 00:46:33;;;;;;;20.80;11.85;;;;;;;-5.86;77.18;98431.75;124564;1143;26065;-67
2021/01/15 00:49:08;;;;;;;21.03;9.70;;;;;;;-5.87;76.12;98427.45;124414;1142;23303;-67
2021/01/15 00:51:37;;;;;;;18.67;9.40;;;;;;;-5.87;77.38;98426.62;124600;1142;23421;-66
2021/01/15 00:54:05;;;;;;;20.53;9.60;;;;;;;-5.86;76.45;98430.93;124395;1143;22711;-66
2021/01/15 00:56:33;;;;;;;17.20;9.60;;;;;;;-5.90;75.80;98430.48;124634;1143;22699;-66
2021/01/15 00:59:00;;;;;;;16.07;8.77;;;;;;;-5.94;76.76;98433.70;124492;1143;22728;-67
2021/01/15 01:01:37;;;;;;;18.13;9.17;;;;;;;-6.03;75.61;98438.23;124557;1143;22778;-67
2021/01/15 01:04:07;;;;;;;14.83;8.40;;;;;;;-6.08;75.85;98437.97;124481;1142;22699;-67
2021/01/15 01:06:34;;;;;;;15.03;8.70;;;;;;;-6.16;76.52;98438.84;124647;1143;22749;-66
2021/01/15 01:09:05;;;;;;;15.83;8.13;;;;;;;-6.26;76.08;98432.97;124483;1142;22694;-66
2021/01/15 01:11:33;;;;;;;11.40;6.60;;;;;;;-6.31;75.90;98437.97;124627;1143;22709;-67
2021/01/15 01:14:01;;;;;;;15.37;7.87;;;;;;;-6.44;75.98;98421.84;124612;1143;23512;-66
2021/01/15 01:16:29;;;;;;;15.83;8.23;;;;;;;-6.40;75.72;98441.70;122637;1143;22942;-66
2021/01/15 01:18:57;;;;;;;17.90;9.05;;;;;;;-6.43;76.27;98447.34;121235;1144;22929;-66
2021/01/15 01:21:25;;;;;;;17.57;7.67;;;;;;;-6.43;75.91;98449.99;121137;1144;22939;-66
2021/01/15 01:23:52;;;;;;;15.80;7.77;;;;;;;-6.42;75.92;98451.64;121097;1143;22930;-66
2021/01/15 01:26:20;;;;;;;16.00;8.90;;;;;;;-6.43;75.74;98444.69;121001;1144;23540;-66
2021/01/15 01:28:47;;;;;;;16.73;8.87;;;;;;;-6.45;76.09;98451.98;121202;1144;22920;-66
2021/01/15 01:31:16;;;;;;;19.40;9.10;;;;;;;-6.48;76.16;98447.03;121037;1143;22939;-66
2021/01/15 01:33:44;;;;;;;24.83;8.37;;;;;;;-6.50;75.68;98451.71;120641;1143;23008;-67
2021/01/15 01:36:12;;;;;;;22.35;9.30;;;;;;;-6.53;75.66;98449.41;124452;1143;22746;-65
2021/01/15 01:38:41;;;;;;;21.00;9.00;;;;;;;-6.58;75.72;98454.40;124585;1142;22709;-67
2021/01/15 01:41:09;;;;;;;14.47;7.53;;;;;;;-6.61;75.91;98460.05;124453;1143;22724;-65
2021/01/15 01:43:38;;;;;;;17.23;9.00;;;;;;;-6.68;76.33;98462.58;124525;1143;23326;-65
2021/01/15 01:46:06;;;;;;;15.53;9.23;;;;;;;-6.75;76.41;98474.03;124422;1143;22694;-65
2021/01/15 01:48:34;;;;;;;16.47;7.87;;;;;;;-6.82;76.33;98460.67;124559;1143;23316;-65
2021/01/15 01:51:01;;;;;;;15.73;7.70;;;;;;;-6.81;76.97;98464.98;124362;1142;22722;-65
2021/01/15 01:53:31;;;;;;;19.67;8.10;;;;;;;-6.81;76.90;98473.75;124616;1142;22706;-66
2021/01/15 01:56:03;;;;;;;18.23;9.07;;;;;;;-6.84;77.36;98475.91;124429;1143;22728;-65
2021/01/15 01:58:31;;;;;;;20.10;8.30;;;;;;;-6.84;77.59;98470.61;124605;1143;22691;-66
2021/01/15 02:01:03;;;;;;;18.07;8.90;;;;;;;-6.83;77.03;98467.80;124533;1143;22713;-65
2021/01/15 02:03:31;;;;;;;15.73;8.33;;;;;;;-6.83;78.05;98462.50;124564;1142;22725;-65
2021/01/15 02:05:59;;;;;;;18.67;9.03;;;;;;;-6.83;78.00;98470.44;124576;1143;22664;-66
2021/01/15 02:08:27;;;;;;;17.93;9.27;;;;;;;-6.81;77.77;98471.09;124459;1143;23466;-65
2021/01/15 02:11:15;;;;;;;17.10;8.30;;;;;;;-6.77;77.35;98463.61;124604;1143;22676;-65
2021/01/15 02:14:02;;;;;;;14.77;7.90;;;;;;;-6.75;77.63;98464.27;124361;1143;23526;-65
2021/01/15 02:16:29;;;;;;;18.67;8.23;;;;;;;-6.71;77.58;98470.05;124515;1143;23762;-65
2021/01/15 02:19:20;;;;;;;18.43;8.90;;;;;;;-6.68;77.25;98467.88;124505;1143;23863;-65
2021/01/15 02:22:25;;;;;;;16.50;8.97;;;;;;;-6.64;77.79;98476.31;124543;1143;22695;-65
2021/01/15 02:24:59;;;;;;;19.43;9.00;;;;;;;-6.79;76.90;98452.39;124538;1143;22746;-65
2021/01/15 02:28:12;;;;;;;19.77;8.67;;;;;;;-6.66;78.14;98478.30;124477;1142;22726;-65
2021/01/15 02:30:39;;;;;;;18.43;8.90;;;;;;;-6.59;77.22;98480.06;124255;1147;22843;-66
2021/01/15 02:33:15;;;;;;;25.23;10.67;;;;;;;-6.56;77.68;98487.66;124066;1146;22760;-65
2021/01/15 02:36:00;;;;;;;17.67;8.90;;;;;;;-6.56;77.78;98487.66;124193;1147;22674;-65
2021/01/15 02:38:43;;;;;;;19.70;9.70;;;;;;;-6.53;77.45;98481.20;124077;1146;23482;-65
2021/01/15 02:41:36;;;;;;;16.47;7.80;;;;;;;-6.65;76.86;98461.41;124203;1146;23838;-65
2021/01/15 02:44:05;;;;;;;22.67;10.77;;;;;;;-6.58;77.00;98486.19;124036;1147;22760;-66
2021/01/15 02:46:51;;;;;;;18.37;8.50;;;;;;;-6.70;77.00;98492.88;124233;1146;22703;-65
2021/01/15 02:49:18;;;;;;;14.60;7.80;;;;;;;-6.74;76.36;98496.87;124091;1145;22891;-65
2021/01/15 02:51:45;;;;;;;14.77;7.50;;;;;;;-6.78;76.23;98496.41;124112;1147;22707;-65
2021/01/15 02:54:13;;;;;;;16.17;9.07;;;;;;;-6.81;76.28;98507.34;124029;1146;22844;-65
2021/01/15 02:56:40;;;;;;;16.67;7.93;;;;;;;-6.85;75.83;98508.67;124250;1147;22709;-65
2021/01/15 02:59:08;;;;;;;15.70;7.07;;;;;;;-6.97;75.99;98504.77;124100;1146;23559;-65
2021/01/15 03:02:06;;;;;;;12.37;5.87;;;;;;;-7.07;75.53;98501.50;124206;1145;22775;-66
2021/01/15 03:04:52;;;;;;;16.40;7.90;;;;;;;-7.18;75.98;98506.15;124072;1147;23552;-65
2021/01/15 03:07:19;;;;;;;14.47;7.17;;;;;;;-7.27;77.02;98517.77;124339;1143;22731;-65
2021/01/15 03:09:47;;;;;;;17.10;7.30;;;;;;;-7.33;77.34;98512.31;124462;1143;22814;-65
2021/01/15 03:12:15;;;;;;;13.83;7.40;;;;;;;-7.36;77.81;98516.14;124550;1142;22662;-65
2021/01/15 03:14:42;;;;;;;14.27;7.27;;;;;;;-7.30;78.03;98517.27;124496;1142;22763;-65
2021/01/15 03:17:10;;;;;;;12.97;6.67;;;;;;;-7.31;77.62;98507.68;124597;1143;22734;-65
2021/01/15 03:19:37;;;;;;;14.63;6.87;;;;;;;-7.28;77.74;98520.58;124374;1143;22853;-65
2021/01/15 03:22:14;;;;;;;15.00;7.33;;;;;;;-7.27;77.80;98516.94;124564;1143;22683;-65
2021/01/15 03:24:53;;;;;;;20.25;7.53;;;;;;;-7.26;77.99;98510.66;124227;1144;22827;-65
2021/01/15 03:27:21;;;;;;;14.80;8.13;;;;;;;-7.25;77.93;98518.42;124638;1143;22706;-65
2021/01/15 03:29:49;;;;;;;17.83;7.73;;;;;;;-7.23;77.86;98515.61;124455;1143;22699;-65
2021/01/15 03:32:16;;;;;;;16.43;6.90;;;;;;;-7.17;77.68;98523.68;124652;1143;22801;-65
2021/01/15 03:34:44;;;;;;;18.00;7.27;;;;;;;-7.11;77.34;98524.83;124479;1143;22697;-65
2021/01/15 03:37:12;;;;;;;13.00;7.37;;;;;;;-7.03;76.97;98522.14;124658;1143;23386;-66
2021/01/15 03:39:39;;;;;;;15.33;6.73;;;;;;;-6.97;76.77;98526.77;124549;1143;22664;-65
2021/01/15 03:42:06;;;;;;;16.23;7.97;;;;;;;-6.91;76.98;98534.00;124511;1143;22678;-65
2021/01/15 03:44:34;;;;;;;13.83;7.40;;;;;;;-6.92;77.03;98523.58;124616;1143;22723;-65
2021/01/15 03:47:01;;;;;;;15.10;7.17;;;;;;;-6.99;77.18;98539.34;124470;1143;22695;-65
2021/01/15 03:49:29;;;;;;;14.77;6.47;;;;;;;-7.17;76.78;98546.67;124624;1143;22682;-65
2021/01/15 03:51:57;;;;;;;12.10;6.10;;;;;;;-7.33;77.17;98542.24;124402;1142;22709;-65
2021/01/15 03:54:25;;;;;;;11.93;5.23;;;;;;;-7.45;77.50;98548.05;124617;1143;22908;-65
2021/01/15 03:56:54;;;;;;;14.40;6.33;;;;;;;-7.59;78.30;98550.39;124505;1143;26774;-65
2021/01/15 03:59:21;;;;;;;11.07;6.03;;;;;;;-7.68;78.53;98546.11;124634;1142;23526;-66
2021/01/15 04:01:49;;;;;;;16.17;6.17;;;;;;;-7.73;79.09;98550.23;124558;1143;22645;-65
2021/01/15 04:04:16;;;;;;;13.20;5.70;;;;;;;-7.78;79.08;98548.08;124640;1143;22776;-65
2021/01/15 04:06:43;;;;;;;10.33;5.67;;;;;;;-7.78;78.99;98553.36;124483;1144;22708;-65
2021/01/15 04:09:11;;;;;;;12.50;6.03;;;;;;;-7.85;78.60;98552.39;124576;1142;23390;-65
2021/01/15 04:11:39;;;;;;;11.30;5.77;;;;;;;-7.89;78.37;98553.70;124439;1142;23939;-66
2021/01/15 04:14:06;;;;;;;14.50;6.50;;;;;;;-7.98;77.93;98546.77;124608;1143;22677;-66
2021/01/15 04:16:34;;;;;;;11.60;5.73;;;;;;;-8.01;77.76;98541.80;124378;1143;22829;-66
2021/01/15 04:19:01;;;;;;;11.77;5.40;;;;;;;-8.01;78.52;98552.37;124539;1144;23418;-66
2021/01/15 04:21:28;;;;;;;13.73;7.00;;;;;;;-8.00;78.22;98549.58;124486;1142;22677;-66
2021/01/15 04:23:56;;;;;;;12.93;6.13;;;;;;;-8.03;78.21;98564.92;124658;1143;22791;-66
2021/01/15 04:26:23;;;;;;;12.87;6.20;;;;;;;-8.03;78.11;98554.35;124609;1143;22720;-66
2021/01/15 04:28:51;;;;;;;12.53;5.83;;;;;;;-8.03;78.03;98557.00;124502;1143;22669;-66
2021/01/15 04:31:20;;;;;;;16.53;6.00;;;;;;;-8.06;77.51;98562.60;124651;1142;23894;-65
2021/01/15 04:33:48;;;;;;;16.27;6.73;;;;;;;-8.06;77.64;98559.96;124482;1143;22703;-66
2021/01/15 04:36:15;;;;;;;13.27;6.60;;;;;;;-8.02;77.30;98562.13;124546;1144;22770;-66
2021/01/15 04:38:43;;;;;;;12.33;5.70;;;;;;;-8.00;77.45;98564.61;124464;1143;22648;-66
2021/01/15 04:41:10;;;;;;;12.63;6.77;;;;;;;-7.99;77.17;98568.91;124618;1143;22767;-66
2021/01/15 04:43:39;;;;;;;15.57;5.87;;;;;;;-8.01;76.86;98568.23;124518;1143;23466;-65
2021/01/15 04:46:06;;;;;;;10.03;5.43;;;;;;;-8.03;77.21;98575.50;124519;1143;22818;-66
2021/01/15 04:48:38;;;;;;;13.05;5.90;;;;;;;-8.00;77.33;98585.75;124488;1143;22756;-66
2021/01/15 04:51:06;;;;;;;12.77;6.03;;;;;;;-7.98;76.96;98589.05;124576;1143;22759;-65
2021/01/15 04:53:33;;;;;;;15.37;6.27;;;;;;;-8.00;77.32;98588.39;124411;1143;23159;-66
2021/01/15 04:56:02;;;;;;;19.07;7.73;;;;;;;-8.07;77.23;98590.02;124532;1142;22710;-66
2021/01/15 04:58:33;;;;;;;13.03;6.53;;;;;;;-8.09;77.59;98611.34;124329;1142;22711;-66
2021/01/15 05:01:00;;;;;;;12.47;6.40;;;;;;;-8.10;77.46;98595.66;124602;1143;23259;-67
2021/01/15 05:03:28;;;;;;;14.57;6.70;;;;;;;-8.10;76.74;98598.30;124410;1143;23802;-66
2021/01/15 05:05:59;;;;;;;14.07;6.73;;;;;;;-8.36;75.77;98558.79;124629;1142;23421;-67
2021/01/15 05:08:28;;;;;;;11.93;6.17;;;;;;;-8.28;75.36;98609.81;124455;1143;23710;-64
2021/01/15 05:10:56;;;;;;;13.53;6.70;;;;;;;-8.41;75.86;98606.83;124538;1143;22707;-64
2021/01/15 05:13:24;;;;;;;15.03;6.53;;;;;;;-8.45;76.69;98616.05;124508;1143;22709;-64
2021/01/15 05:15:54;;;;;;;17.47;6.80;;;;;;;-8.49;75.82;98613.88;124549;1142;22652;-65
2021/01/15 05:18:22;;;;;;;10.03;5.60;;;;;;;-8.49;76.63;98611.24;124311;1144;22712;-65
2021/01/15 05:20:51;;;;;;;14.33;6.83;;;;;;;-8.50;76.64;98612.23;124398;1143;22765;-65
2021/01/15 05:23:18;;;;;;;12.53;6.20;;;;;;;-8.55;76.51;98612.73;124559;1143;22733;-65
2021/01/15 05:25:47;;;;;;;13.63;6.47;;;;;;;-8.55;76.61;98618.01;124353;1143;22718;-65
2021/01/15 05:28:14;;;;;;;12.20;6.20;;;;;;;-8.53;76.23;98629.24;124562;1143;22689;-65
2021/01/15 05:30:42;;;;;;;12.90;6.43;;;;;;;-8.54;75.79;98624.12;124485;1143;22713;-65
2021/01/15 05:33:11;;;;;;;15.13;6.53;;;;;;;-8.54;75.44;98634.68;120462;1143;22933;-66
2021/01/15 05:35:46;;;;;;;13.70;7.60;;;;;;;-8.58;76.09;98636.80;124343;1143;23270;-65
2021/01/15 05:38:14;;;;;;;11.90;6.20;;;;;;;-8.53;75.46;98639.80;124586;1143;22720;-65
2021/01/15 05:41:28;;;;;;;16.83;8.40;;;;;;;-8.53;75.98;98639.80;119876;1147;22928;-65
2021/01/15 05:43:56;;;;;;;11.90;6.85;;;;;;;-8.57;75.73;98649.02;124116;1146;22859;-65
2021/01/15 05:46:23;;;;;;;16.70;7.97;;;;;;;-8.53;76.71;98646.90;123918;1146;22772;-65
2021/01/15 05:48:57;;;;;;;16.33;7.80;;;;;;;-8.49;76.18;98643.77;124106;1147;22762;-65
2021/01/15 05:51:25;;;;;;;15.70;6.17;;;;;;;-8.45;76.47;98647.75;124078;1145;22666;-65
2021/01/15 05:53:53;;;;;;;18.07;7.90;;;;;;;-8.38;76.29;98656.70;124212;1146;22684;-65
2021/01/15 05:56:21;;;;;;;13.77;6.97;;;;;;;-8.35;76.26;98655.53;123977;1147;24036;-65
2021/01/15 05:59:05;;;;;;;15.70;7.20;;;;;;;-8.27;76.68;98658.19;124290;1147;22651;-66
2021/01/15 06:01:42;;;;;;;13.63;7.10;;;;;;;-8.17;76.48;98650.12;124091;1147;22685;-65
2021/01/15 06:04:10;;;;;;;;;;;;;;;-8.11;76.01;98646.84;124262;1147;22742;-66
2021/01/15 06:06:38;;;;;;;19.60;8.78;;;;;;;-8.11;77.79;98650.31;124136;1147;21487;-65
2021/01/15 06:09:06;;;;;;;15.80;7.33;;;;;;;-8.11;77.76;98657.41;124239;1147;22702;-67
2021/01/15 06:11:34;;;;;;;19.90;7.47;;;;;;;-8.17;77.38;98652.77;124110;1146;22718;-65
2021/01/15 06:14:17;;;;;;;16.15;7.55;;;;;;;-8.22;75.74;98666.44;124175;1146;22717;-65
2021/01/15 06:16:45;;;;;;;12.90;6.67;;;;;;;-8.31;75.68;98664.77;124006;1147;22725;-66
2021/01/15 06:19:12;;;;;;;15.00;6.83;;;;;;;-8.31;75.42;98672.69;124221;1147;22686;-65
2021/01/15 06:21:50;;;;;;;15.60;6.73;;;;;;;-8.37;74.86;98673.38;124031;1148;22678;-66
2021/01/15 06:24:20;;;;;;;15.50;7.70;;;;;;;-8.42;75.07;98671.20;124242;1145;23562;-67
2021/01/15 06:27:08;;;;;;;20.03;9.47;;;;;;;-8.38;75.22;98671.72;124049;1145;22805;-64
2021/01/15 06:29:43;;;;;;;21.57;9.50;;;;;;;-8.36;74.76;98673.19;124040;1147;22777;-66
2021/01/15 06:32:11;;;;;;;17.50;7.70;;;;;;;-8.31;74.35;98684.09;124091;1146;22667;-64
2021/01/15 06:34:48;;;;;;;20.53;9.07;;;;;;;-8.35;73.64;98684.59;124189;1146;22675;-65
2021/01/15 06:37:19;;;;;;;16.87;7.30;;;;;;;-8.46;73.30;98693.62;124071;1148;25146;-65
2021/01/15 06:40:07;;;;;;;15.40;7.33;;;;;;;-8.53;73.17;98700.55;124159;1146;22903;-65
2021/01/15 06:42:48;;;;;;;19.40;9.33;;;;;;;-8.60;73.08;98699.50;124055;1148;22794;-65
2021/01/15 06:45:15;;;;;;;22.20;10.73;;;;;;;-8.61;73.03;98703.13;124262;1146;22694;-66
2021/01/15 06:47:46;;;;;;;17.63;8.87;;;;;;;-8.62;73.48;98712.86;124039;1146;23250;-65
2021/01/15 06:50:17;;;;;;;19.43;7.67;;;;;;;-8.60;73.24;98710.06;124215;1146;22723;-65
2021/01/15 06:52:49;;;;;;;17.30;8.00;;;;;;;-8.62;73.35;98712.86;124104;1147;22684;-65
2021/01/15 06:55:18;;;;;;;17.03;7.43;;;;;;;-8.64;72.72;98714.81;124109;1146;26578;-69
2021/01/15 06:57:48;;;;;;;17.97;8.63;;;;;;;-8.58;73.71;98710.73;124024;1147;22776;-67
2021/01/15 07:00:20;;;;;;;15.60;7.27;;;;;;;-8.48;73.36;98719.36;123954;1148;22867;-67
2021/01/15 07:03:06;;;;;;;12.83;6.83;;;;;;;-8.39;72.85;98720.25;123503;1148;22791;-66
2021/01/15 07:05:43;;;;;;;17.47;8.17;;;;;;;-8.33;73.43;98732.81;123898;1146;22682;-67
2021/01/15 07:08:11;;;;;;;22.27;8.88;;;;;;;-8.32;72.96;98723.91;124139;1148;22681;-66
2021/01/15 07:10:38;;;;;;;17.47;7.67;;;;;;;-8.36;72.38;98730.48;124280;1148;23467;-66
2021/01/15 07:13:09;;;;;;;19.07;8.00;;;;;;;-8.45;72.35;98720.87;123832;1148;23534;-66
2021/01/15 07:15:41;;;;;;;18.73;8.00;;;;;;;-8.51;72.42;98729.44;124258;1148;22781;-67
2021/01/15 07:18:22;;;;;;;16.17;7.47;;;;;;;-8.51;73.41;98735.52;124189;1148;22721;-67
2021/01/15 07:20:50;;;;;;;13.57;6.37;;;;;;;-8.48;72.60;98740.49;124144;1148;22744;-65
2021/01/15 07:23:17;;;;;;;14.13;6.33;;;;;;;-8.48;73.32;98747.58;124075;1148;22664;-69
2021/01/15 07:25:48;;;;;;;19.00;7.00;;;;;;;-8.49;72.55;98754.68;124097;1149;22692;-69
2021/01/15 07:28:15;;;;;;;18.63;7.87;;;;;;;-8.58;72.56;98760.91;124134;1147;22699;-68
2021/01/15 07:30:43;;;;;;;16.43;6.90;;;;;;;-8.68;71.18;98768.94;124168;1148;22689;-72
2021/01/15 07:33:10;;;;;;;16.23;7.20;;;;;;;-8.83;70.98;98765.20;123987;1149;22709;-68
2021/01/15 07:35:38;;;;;;;17.40;6.70;;;;;;;-8.93;71.21;98770.55;124097;1148;22760;-65
2021/01/15 07:38:12;;;;;;;16.53;8.40;;;;;;;-8.95;71.38;98775.18;124099;1148;22739;-66
2021/01/15 07:40:40;;;;;;;18.03;8.57;;;;;;;-8.87;71.57;98770.93;124153;1148;23402;-65
2021/01/15 07:43:29;;;;;;;19.47;8.97;;;;;;;-8.81;71.51;98771.16;123962;1149;22701;-64
2021/01/15 07:45:57;;;;;;;29.20;10.93;;;;;;;-8.80;71.73;98771.98;124140;1148;22691;-67
2021/01/15 07:48:26;;;;;;;18.30;8.40;;;;;;;-8.83;71.03;98773.12;124012;1148;22732;-69
2021/01/15 07:50:54;;;;;;;27.60;9.97;;;;;;;-8.80;71.37;98785.19;124221;1148;22779;-68
2021/01/15 07:53:27;;;;;;;30.83;12.33;;;;;;;-8.78;71.43;98783.20;124131;1148;22909;-67
2021/01/15 07:55:59;;;;;;;40.00;13.47;;;;;;;-8.75;72.40;98790.81;124188;1148;22666;-67
2021/01/15 07:58:38;;;;;;;37.30;12.40;;;;;;;-8.74;71.99;98788.02;124121;1148;23581;-67
2021/01/15 08:01:06;;;;;;;24.80;11.03;;;;;;;-8.75;71.80;98793.45;124136;1148;22706;-66
2021/01/15 08:03:44;;;;;;;26.57;10.57;;;;;;;-8.70;72.16;98801.75;124165;1148;22680;-67
2021/01/15 08:06:11;;;;;;;20.88;8.25;;;;;;;-8.69;70.82;98809.52;124161;1148;22756;-67
2021/01/15 08:09:00;;;;;;;23.03;9.90;;;;;;;-8.73;71.41;98805.52;124065;1148;22671;-66
2021/01/15 08:11:32;;;;;;;24.67;10.53;;;;;;;-8.79;71.50;98811.40;124145;1149;22692;-67
2021/01/15 08:14:20;;;;;;;38.77;12.40;;;;;;;-8.80;71.17;98819.50;124085;1148;22728;-66
2021/01/15 08:16:48;;;;;;;20.87;8.83;;;;;;;-8.85;71.67;98819.95;124223;1146;23570;-67
2021/01/15 08:19:17;;;;;;;31.37;13.37;;;;;;;-8.84;71.88;98828.70;124026;1148;22675;-69
2021/01/15 08:21:45;;;;;;;29.70;11.93;;;;;;;-8.87;72.96;98831.63;124181;1145;23980;-68
2021/01/15 08:24:13;;;;;;;31.83;12.23;;;;;;;-8.88;72.45;98838.72;124012;1145;22765;-67
2021/01/15 08:26:58;;;;;;;35.83;13.13;;;;;;;-8.88;72.66;98829.97;124198;1148;22731;-68
2021/01/15 08:29:29;;;;;;;33.83;13.10;;;;;;;-8.89;72.69;98837.06;123942;1148;22726;-68
2021/01/15 08:31:58;;;;;;;43.47;16.03;;;;;;;-8.93;72.60;98836.52;124126;1148;23332;-67
2021/01/15 08:34:33;;;;;;;31.33;13.77;;;;;;;-8.97;71.51;98835.19;124028;1148;22694;-67
2021/01/15 08:37:01;;;;;;;22.23;11.10;;;;;;;-9.01;69.98;98830.36;124283;1146;22691;-66
2021/01/15 08:39:32;;;;;;;24.97;12.10;;;;;;;-9.12;71.35;98831.42;124019;1147;22752;-67
2021/01/15 08:42:05;;;;;;;18.73;8.47;;;;;;;-9.11;69.98;98840.16;124205;1148;22696;-67
2021/01/15 08:44:37;;;;;;;19.37;8.83;;;;;;;-9.21;70.79;98836.75;123936;1149;23848;-67
2021/01/15 08:47:10;;;;;;;17.43;8.67;;;;;;;-9.23;70.52;98834.25;124123;1148;22768;-67
2021/01/15 08:49:38;;;;;;;44.10;16.63;;;;;;;-9.37;70.39;98817.14;124122;1148;23361;-67
2021/01/15 08:52:07;;;;;;;41.23;14.93;;;;;;;-9.25;70.52;98836.24;124004;1149;22680;-67
2021/01/15 08:54:37;;;;;;;58.30;19.13;;;;;;;-9.17;71.28;98840.75;124181;1145;22699;-63
2021/01/15 08:57:05;;;;;;;34.17;11.33;;;;;;;-9.15;69.78;98836.99;124034;1148;22688;-65
2021/01/15 08:59:33;;;;;;;25.50;10.87;;;;;;;-9.17;69.52;98840.75;124212;1148;22693;-66
2021/01/15 09:02:02;;;;;;;23.77;9.80;;;;;;;-9.22;69.86;98833.28;123962;1148;22684;-67
2021/01/15 09:04:33;;;;;;;19.60;8.07;;;;;;;-9.19;71.26;98840.90;124245;1148;22746;-65
2021/01/15 09:07:06;;;;;;;33.47;13.00;;;;;;;-9.10;70.01;98845.30;123993;1148;22684;-67
2021/01/15 09:09:35;;;;;;;38.17;14.90;;;;;;;-9.10;70.51;98833.91;124148;1148;23648;-66
2021/01/15 09:12:03;;;;;;;30.00;12.70;;;;;;;-9.01;71.53;98838.27;123944;1148;22690;-66
2021/01/15 09:14:35;;;;;;;24.57;12.07;;;;;;;-8.90;70.97;98843.31;124154;1148;23536;-66
2021/01/15 09:17:04;;;;;;;21.95;10.60;;;;;;;-8.85;70.16;98843.70;120630;1148;26060;-65
2021/01/15 09:19:32;;;;;;;21.23;10.40;;;;;;;-8.86;70.18;98849.95;124145;1148;22683;-65
2021/01/15 09:22:01;;;;;;;19.90;7.50;;;;;;;-8.83;70.21;98854.94;123979;1148;22807;-66
2021/01/15 09:24:29;;;;;;;23.90;8.93;;;;;;;-8.80;69.93;98848.53;124132;1148;22749;-67
2021/01/15 09:26:57;;;;;;;14.33;7.03;;;;;;;-8.74;70.17;98858.47;124178;1148;22692;-65
2021/01/15 09:29:25;;;;;;;16.53;7.50;;;;;;;-8.71;67.75;98851.08;124141;1148;22725;-66
2021/01/15 09:31:52;;;;;;;17.83;6.13;;;;;;;-8.77;67.94;98846.40;124055;1147;22877;-66
2021/01/15 09:34:21;;;;;;;15.37;6.57;;;;;;;-8.83;67.29;98857.58;124197;1148;23314;-65
2021/01/15 09:36:49;;;;;;;16.87;8.10;;;;;;;-8.93;67.94;98860.28;124071;1148;22654;-66
2021/01/15 09:39:18;;;;;;;28.33;10.87;;;;;;;-8.94;68.32;98868.34;124150;1148;22805;-66
2021/01/15 09:41:53;;;;;;;19.27;9.00;;;;;;;-8.94;68.37;98863.89;124073;1148;22782;-67
2021/01/15 09:44:21;;;;;;;17.07;7.77;;;;;;;-8.91;69.52;98870.69;124243;1148;22785;-65
2021/01/15 09:46:50;;;;;;;18.37;7.40;;;;;;;-8.93;68.78;98862.09;124200;1148;22809;-68
2021/01/15 09:49:22;;;;;;;17.23;7.57;;;;;;;-8.92;68.80;98866.39;124111;1149;23489;-68
2021/01/15 09:51:50;;;;;;;17.60;7.80;;;;;;;-8.94;69.29;98855.98;124210;1148;23348;-68
2021/01/15 09:54:17;;;;;;;14.67;6.30;;;;;;;-8.93;69.15;98865.55;124106;1148;23478;-68
2021/01/15 09:56:45;;;;;;;12.83;7.20;;;;;;;-8.84;69.79;98866.48;124250;1148;22773;-67
2021/01/15 09:59:16;;;;;;;16.40;7.13;;;;;;;-8.76;68.70;98868.34;124114;1148;22796;-68
2021/01/15 10:01:45;;;;;;;13.13;6.17;;;;;;;-8.69;68.94;98864.13;124158;1148;23030;-68
2021/01/15 10:04:13;;;;;;;11.20;5.37;;;;;;;-8.61;69.14;98867.66;124016;1148;22689;-67
2021/01/15 10:06:41;;;;;;;14.13;6.80;;;;;;;-8.52;68.11;98867.73;124217;1148;22851;-67
2021/01/15 10:09:09;;;;;;;11.07;6.23;;;;;;;-8.52;68.55;98868.57;124065;1148;22706;-67
2021/01/15 10:11:41;;;;;;;18.67;8.63;;;;;;;-8.48;68.46;98861.98;124295;1148;23932;-69
2021/01/15 10:14:12;;;;;;;18.30;7.80;;;;;;;-8.49;67.01;98865.59;123975;1148;22710;-69
2021/01/15 10:16:49;;;;;;;19.40;7.70;;;;;;;-8.52;66.61;98862.45;124296;1148;22703;-69
2021/01/15 10:19:18;;;;;;;22.87;9.57;;;;;;;-8.57;67.44;98858.45;123883;1149;22679;-69
2021/01/15 10:21:46;;;;;;;12.73;6.63;;;;;;;-8.52;67.54;98858.00;124237;1148;22717;-69
2021/01/15 10:24:14;;;;;;;11.77;5.90;;;;;;;-8.52;67.78;98855.36;124102;1148;22744;-66
2021/01/15 10:26:42;;;;;;;16.73;7.63;;;;;;;-8.60;67.98;98842.08;124275;1148;24928;-67
2021/01/15 10:29:11;;;;;;;14.93;7.60;;;;;;;-8.48;67.90;98867.26;124094;1148;23672;-67
2021/01/15 10:31:42;;;;;;;23.70;9.87;;;;;;;-8.43;67.57;98867.64;124329;1148;22695;-67
2021/01/15 10:34:10;;;;;;;21.63;9.43;;;;;;;-8.48;67.13;98859.34;124107;1148;22652;-65
2021/01/15 10:36:44;;;;;;;14.53;7.07;;;;;;;-8.57;67.03;98862.91;124204;1148;23294;-67
2021/01/15 10:39:11;;;;;;;18.83;8.70;;;;;;;-8.54;68.18;98859.14;124013;1148;26680;-68
2021/01/15 10:41:40;;;;;;;15.87;7.57;;;;;;;-8.47;68.04;98855.71;124247;1146;23471;-68
2021/01/15 10:44:09;;;;;;;17.43;7.80;;;;;;;-8.39;67.48;98850.50;124100;1147;22684;-67
2021/01/15 10:46:41;;;;;;;14.03;6.30;;;;;;;-8.32;68.43;98851.53;124204;1148;22673;-67
2021/01/15 10:49:16;;;;;;;11.87;6.83;;;;;;;-8.22;69.06;98843.45;124241;1146;22713;-67
2021/01/15 10:51:48;;;;;;;16.67;7.97;;;;;;;-8.09;68.52;98853.64;124068;1149;23425;-68
2021/01/15 10:54:16;;;;;;;13.13;5.83;;;;;;;-7.97;67.66;98847.92;124208;1148;22688;-69
2021/01/15 10:56:48;;;;;;;13.63;5.80;;;;;;;-7.95;66.81;98850.41;123962;1145;23374;-68
2021/01/15 10:59:15;;;;;;;11.57;6.00;;;;;;;-7.97;66.81;98850.57;124182;1146;22675;-68
2021/01/15 11:01:50;;;;;;;11.47;5.60;;;;;;;-7.94;66.75;98852.08;124101;1148;22716;-68
2021/01/15 11:04:18;;;;;;;13.03;5.87;;;;;;;-7.88;66.53;98851.43;124258;1148;22771;-66
2021/01/15 11:06:47;;;;;;;12.03;5.63;;;;;;;-7.80;65.87;98856.77;124038;1148;22690;-65
2021/01/15 11:09:16;;;;;;;13.83;6.17;;;;;;;-7.82;65.92;98853.45;124162;1148;22672;-67
2021/01/15 11:12:02;;;;;;;11.43;5.87;;;;;;;-7.87;64.20;98842.52;124259;1147;22700;-68
2021/01/15 11:14:30;;;;;;;14.10;7.13;;;;;;;-7.98;64.44;98856.84;124295;1148;22677;-68
2021/01/15 11:16:58;;;;;;;16.95;7.80;;;;;;;-8.11;65.15;98855.61;124233;1148;23837;-68
2021/01/15 11:19:25;;;;;;;16.67;6.87;;;;;;;-8.16;66.28;98857.87;124406;1148;23280;-69
2021/01/15 11:21:53;;;;;;;21.40;8.43;;;;;;;-8.14;65.99;98861.19;124097;1148;22693;-68
2021/01/15 11:24:20;;;;;;;15.65;7.30;;;;;;;-8.20;66.58;98858.17;124337;1148;23839;-68
2021/01/15 11:26:49;;;;;;;15.97;6.67;;;;;;;-8.15;67.62;98859.53;124274;1147;22718;-69
2021/01/15 11:29:17;;;;;;;21.60;8.37;;;;;;;-8.12;66.28;98859.23;124262;1148;22668;-68
2021/01/15 11:31:44;;;;;;;29.83;10.97;;;;;;;-8.13;66.18;98853.11;124088;1148;22714;-69
2021/01/15 11:34:12;;;;;;;24.17;9.80;;;;;;;-8.22;65.78;98852.22;124192;1146;22704;-68